sensor_id;sensor_type;location;lat;lon;timestamp;P1;durP1;ratioP1;P2;durP2;ratioP2
70477;SDS011;57956;53.362;-1.518;2022-09-03T00:00:26;3.65;;;1.63;;
70477;SDS011;57956;53.362;-1.518;2022-09-03T00:05:39;6.28;;;2.53;;
70477;SDS011;57956;53.362;-1.518;2022-09-03T00:08:11;8.03;;;2.07;;
70477;SDS011;57956;53.362;-1.518;2022-09-03T00:10:44;13.52;;;2.33;;
70477;SDS011;57956;53.362;-1.518;2022-09-03T00:13:13;4.28;;;1.73;;
70477;SDS011;57956;53.362;-1.518;2022-09-03T00:15:39;4.88;;;1.65;;
70477;SDS011;57956;53.362;-1.518;2022-09-03T00:18:06;4.10;;;1.67;;
70477;SDS011;57956;53.362;-1.518;2022-09-03T00:20:35;4.85;;;1.73;;
70477;SDS011;57956;53.362;-1.518;2022-09-03T00:23:04;14.07;;;2.50;;
70477;SDS011;57956;53.362;-1.518;2022-09-03T00:25:43;4.60;;;1.67;;
70477;SDS011;57956;53.362;-1.518;2022-09-03T00:28:14;5.53;;;1.70;;
70477;SDS011;57956;53.362;-1.518;2022-09-03T00:30:41;6.35;;;1.67;;
70477;SDS011;57956;53.362;-1.518;2022-09-03T00:33:14;4.18;;;1.60;;
70477;SDS011;57956;53.362;-1.518;2022-09-03T00:38:08;4.50;;;1.40;;
70477;SDS011;57956;53.362;-1.518;2022-09-03T00:48:29;3.53;;;1.40;;
70477;SDS011;57956;53.362;-1.518;2022-09-03T00:56:31;5.47;;;2.10;;
70477;SDS011;57956;53.362;-1.518;2022-09-03T01:01:31;6.45;;;1.65;;
70477;SDS011;57956;53.362;-1.518;2022-09-03T01:04:04;3.45;;;1.27;;
70477;SDS011;57956;53.362;-1.518;2022-09-03T01:17:26;4.22;;;1.60;;
70477;SDS011;57956;53.362;-1.518;2022-09-03T01:30:17;5.07;;;1.88;;
70477;SDS011;57956;53.362;-1.518;2022-09-03T01:38:11;3.65;;;1.50;;
70477;SDS011;57956;53.362;-1.518;2022-09-03T01:43:21;6.80;;;2.58;;
70477;SDS011;57956;53.362;-1.518;2022-09-03T01:46:09;5.10;;;2.00;;
70477;SDS011;57956;53.362;-1.518;2022-09-03T01:51:20;5.20;;;2.25;;
70477;SDS011;57956;53.362;-1.518;2022-09-03T01:59:07;5.97;;;2.30;;
70477;SDS011;57956;53.362;-1.518;2022-09-03T02:01:40;4.97;;;1.60;;
70477;SDS011;57956;53.362;-1.518;2022-09-03T02:04:17;4.20;;;1.50;;
70477;SDS011;57956;53.362;-1.518;2022-09-03T02:06:44;9.05;;;3.28;;
70477;SDS011;57956;53.362;-1.518;2022-09-03T02:09:10;5.57;;;1.98;;
70477;SDS011;57956;53.362;-1.518;2022-09-03T02:11:35;5.90;;;1.70;;
70477;SDS011;57956;53.362;-1.518;2022-09-03T02:14:01;4.13;;;1.73;;
70477;SDS011;57956;53.362;-1.518;2022-09-03T02:16:30;5.53;;;1.88;;
70477;SDS011;57956;53.362;-1.518;2022-09-03T02:19:03;5.00;;;2.13;;
70477;SDS011;57956;53.362;-1.518;2022-09-03T02:21:33;8.03;;;2.10;;
70477;SDS011;57956;53.362;-1.518;2022-09-03T02:23:59;6.15;;;2.03;;
70477;SDS011;57956;53.362;-1.518;2022-09-03T02:26:25;5.07;;;2.23;;
70477;SDS011;57956;53.362;-1.518;2022-09-03T02:28:51;6.07;;;2.60;;
70477;SDS011;57956;53.362;-1.518;2022-09-03T02:31:17;5.63;;;2.15;;
70477;SDS011;57956;53.362;-1.518;2022-09-03T02:33:43;4.47;;;1.97;;
70477;SDS011;57956;53.362;-1.518;2022-09-03T02:36:10;4.50;;;1.80;;
70477;SDS011;57956;53.362;-1.518;2022-09-03T02:38:36;5.07;;;2.23;;
70477;SDS011;57956;53.362;-1.518;2022-09-03T02:41:02;6.30;;;2.38;;
70477;SDS011;57956;53.362;-1.518;2022-09-03T02:46:03;7.30;;;2.60;;
70477;SDS011;57956;53.362;-1.518;2022-09-03T02:48:30;5.35;;;2.05;;
70477;SDS011;57956;53.362;-1.518;2022-09-03T02:50:55;5.03;;;2.30;;
70477;SDS011;57956;53.362;-1.518;2022-09-03T02:53:20;6.53;;;2.17;;
70477;SDS011;57956;53.362;-1.518;2022-09-03T02:55:46;5.93;;;2.67;;
70477;SDS011;57956;53.362;-1.518;2022-09-03T02:58:11;6.83;;;2.63;;
70477;SDS011;57956;53.362;-1.518;2022-09-03T03:00:36;7.20;;;3.20;;
70477;SDS011;57956;53.362;-1.518;2022-09-03T03:03:02;5.87;;;2.27;;
70477;SDS011;57956;53.362;-1.518;2022-09-03T03:05:35;8.75;;;3.42;;
70477;SDS011;57956;53.362;-1.518;2022-09-03T03:08:06;6.03;;;2.50;;
70477;SDS011;57956;53.362;-1.518;2022-09-03T03:10:32;7.32;;;2.65;;
70477;SDS011;57956;53.362;-1.518;2022-09-03T03:12:58;6.65;;;2.67;;
70477;SDS011;57956;53.362;-1.518;2022-09-03T03:15:24;8.90;;;3.53;;
70477;SDS011;57956;53.362;-1.518;2022-09-03T03:17:49;7.23;;;3.03;;
70477;SDS011;57956;53.362;-1.518;2022-09-03T03:20:14;8.63;;;3.80;;
70477;SDS011;57956;53.362;-1.518;2022-09-03T03:22:39;8.03;;;3.50;;
70477;SDS011;57956;53.362;-1.518;2022-09-03T03:25:05;9.80;;;2.83;;
70477;SDS011;57956;53.362;-1.518;2022-09-03T03:27:30;5.23;;;2.27;;
70477;SDS011;57956;53.362;-1.518;2022-09-03T03:29:55;8.27;;;3.30;;
70477;SDS011;57956;53.362;-1.518;2022-09-03T03:32:22;5.97;;;3.00;;
70477;SDS011;57956;53.362;-1.518;2022-09-03T03:34:47;7.43;;;3.27;;
70477;SDS011;57956;53.362;-1.518;2022-09-03T03:37:12;7.97;;;3.03;;
70477;SDS011;57956;53.362;-1.518;2022-09-03T03:39:37;8.20;;;2.77;;
70477;SDS011;57956;53.362;-1.518;2022-09-03T03:42:03;6.60;;;3.97;;
70477;SDS011;57956;53.362;-1.518;2022-09-03T03:44:28;10.07;;;3.27;;
70477;SDS011;57956;53.362;-1.518;2022-09-03T03:46:53;7.07;;;3.47;;
70477;SDS011;57956;53.362;-1.518;2022-09-03T03:49:19;6.63;;;2.27;;
70477;SDS011;57956;53.362;-1.518;2022-09-03T03:51:44;6.00;;;2.33;;
70477;SDS011;57956;53.362;-1.518;2022-09-03T03:54:09;7.83;;;4.83;;
70477;SDS011;57956;53.362;-1.518;2022-09-03T03:56:34;7.82;;;3.20;;
70477;SDS011;57956;53.362;-1.518;2022-09-03T03:59:00;7.93;;;3.70;;
70477;SDS011;57956;53.362;-1.518;2022-09-03T04:01:26;6.20;;;2.83;;
70477;SDS011;57956;53.362;-1.518;2022-09-03T04:03:53;13.32;;;3.67;;
70477;SDS011;57956;53.362;-1.518;2022-09-03T04:06:19;10.35;;;4.00;;
70477;SDS011;57956;53.362;-1.518;2022-09-03T04:08:45;6.57;;;3.27;;
70477;SDS011;57956;53.362;-1.518;2022-09-03T04:11:11;8.90;;;4.00;;
70477;SDS011;57956;53.362;-1.518;2022-09-03T04:13:38;10.02;;;4.28;;
70477;SDS011;57956;53.362;-1.518;2022-09-03T04:16:05;6.67;;;2.70;;
70477;SDS011;57956;53.362;-1.518;2022-09-03T04:18:30;8.32;;;3.40;;
70477;SDS011;57956;53.362;-1.518;2022-09-03T04:21:00;10.48;;;4.10;;
70477;SDS011;57956;53.362;-1.518;2022-09-03T04:23:28;11.47;;;4.17;;
70477;SDS011;57956;53.362;-1.518;2022-09-03T04:25:53;9.87;;;3.67;;
70477;SDS011;57956;53.362;-1.518;2022-09-03T04:28:18;7.97;;;3.63;;
70477;SDS011;57956;53.362;-1.518;2022-09-03T04:30:43;13.10;;;3.67;;
70477;SDS011;57956;53.362;-1.518;2022-09-03T04:33:09;8.40;;;3.67;;
70477;SDS011;57956;53.362;-1.518;2022-09-03T04:35:34;8.10;;;3.40;;
70477;SDS011;57956;53.362;-1.518;2022-09-03T04:37:59;10.83;;;3.37;;
70477;SDS011;57956;53.362;-1.518;2022-09-03T04:40:25;9.55;;;3.63;;
70477;SDS011;57956;53.362;-1.518;2022-09-03T04:42:55;6.73;;;3.23;;
70477;SDS011;57956;53.362;-1.518;2022-09-03T04:45:20;9.38;;;3.45;;
70477;SDS011;57956;53.362;-1.518;2022-09-03T04:47:54;8.43;;;2.87;;
70477;SDS011;57956;53.362;-1.518;2022-09-03T04:50:20;6.28;;;2.97;;
70477;SDS011;57956;53.362;-1.518;2022-09-03T04:52:45;8.50;;;3.80;;
70477;SDS011;57956;53.362;-1.518;2022-09-03T04:55:11;10.03;;;4.07;;
70477;SDS011;57956;53.362;-1.518;2022-09-03T04:57:36;8.30;;;3.90;;
70477;SDS011;57956;53.362;-1.518;2022-09-03T05:00:02;8.00;;;3.22;;
70477;SDS011;57956;53.362;-1.518;2022-09-03T05:02:28;8.83;;;3.10;;
70477;SDS011;57956;53.362;-1.518;2022-09-03T05:04:53;7.57;;;3.33;;
70477;SDS011;57956;53.362;-1.518;2022-09-03T05:07:18;8.23;;;2.73;;
70477;SDS011;57956;53.362;-1.518;2022-09-03T05:09:45;10.77;;;3.90;;
70477;SDS011;57956;53.362;-1.518;2022-09-03T05:12:10;8.50;;;4.23;;
70477;SDS011;57956;53.362;-1.518;2022-09-03T05:14:37;8.45;;;3.25;;
70477;SDS011;57956;53.362;-1.518;2022-09-03T05:17:02;7.60;;;3.53;;
70477;SDS011;57956;53.362;-1.518;2022-09-03T05:19:28;6.97;;;3.30;;
70477;SDS011;57956;53.362;-1.518;2022-09-03T05:21:53;8.33;;;3.50;;
70477;SDS011;57956;53.362;-1.518;2022-09-03T05:24:18;8.80;;;3.97;;
70477;SDS011;57956;53.362;-1.518;2022-09-03T05:26:43;9.57;;;3.97;;
70477;SDS011;57956;53.362;-1.518;2022-09-03T05:29:09;8.93;;;3.27;;
70477;SDS011;57956;53.362;-1.518;2022-09-03T05:31:36;9.67;;;3.63;;
70477;SDS011;57956;53.362;-1.518;2022-09-03T05:34:03;15.57;;;5.00;;
70477;SDS011;57956;53.362;-1.518;2022-09-03T05:36:30;10.10;;;4.00;;
70477;SDS011;57956;53.362;-1.518;2022-09-03T05:38:56;8.60;;;3.50;;
70477;SDS011;57956;53.362;-1.518;2022-09-03T05:41:22;8.60;;;3.22;;
70477;SDS011;57956;53.362;-1.518;2022-09-03T05:43:48;7.57;;;3.53;;
70477;SDS011;57956;53.362;-1.518;2022-09-03T05:46:19;10.65;;;4.55;;
70477;SDS011;57956;53.362;-1.518;2022-09-03T05:48:45;6.97;;;2.80;;
70477;SDS011;57956;53.362;-1.518;2022-09-03T05:51:12;9.00;;;3.80;;
70477;SDS011;57956;53.362;-1.518;2022-09-03T05:53:40;9.73;;;4.53;;
70477;SDS011;57956;53.362;-1.518;2022-09-03T05:56:06;10.60;;;4.33;;
70477;SDS011;57956;53.362;-1.518;2022-09-03T05:58:36;8.43;;;3.13;;
70477;SDS011;57956;53.362;-1.518;2022-09-03T06:01:36;7.45;;;3.13;;
70477;SDS011;57956;53.362;-1.518;2022-09-03T06:04:01;8.15;;;3.92;;
70477;SDS011;57956;53.362;-1.518;2022-09-03T06:06:28;10.18;;;3.90;;
70477;SDS011;57956;53.362;-1.518;2022-09-03T06:08:54;8.10;;;3.93;;
70477;SDS011;57956;53.362;-1.518;2022-09-03T06:11:20;8.57;;;3.03;;
70477;SDS011;57956;53.362;-1.518;2022-09-03T06:13:46;13.38;;;4.90;;
70477;SDS011;57956;53.362;-1.518;2022-09-03T06:16:12;8.40;;;3.50;;
70477;SDS011;57956;53.362;-1.518;2022-09-03T06:18:37;12.30;;;5.07;;
70477;SDS011;57956;53.362;-1.518;2022-09-03T06:21:03;8.93;;;4.17;;
70477;SDS011;57956;53.362;-1.518;2022-09-03T06:23:29;10.40;;;4.60;;
70477;SDS011;57956;53.362;-1.518;2022-09-03T06:28:26;10.05;;;4.05;;
70477;SDS011;57956;53.362;-1.518;2022-09-03T06:30:52;9.80;;;4.30;;
70477;SDS011;57956;53.362;-1.518;2022-09-03T06:33:18;8.18;;;3.33;;
70477;SDS011;57956;53.362;-1.518;2022-09-03T06:35:43;12.93;;;4.37;;
70477;SDS011;57956;53.362;-1.518;2022-09-03T06:38:09;7.37;;;3.27;;
70477;SDS011;57956;53.362;-1.518;2022-09-03T06:40:36;10.73;;;3.83;;
70477;SDS011;57956;53.362;-1.518;2022-09-03T06:43:01;7.83;;;4.30;;
70477;SDS011;57956;53.362;-1.518;2022-09-03T06:45:28;10.25;;;4.22;;
70477;SDS011;57956;53.362;-1.518;2022-09-03T06:47:53;8.50;;;4.07;;
70477;SDS011;57956;53.362;-1.518;2022-09-03T06:50:18;10.53;;;4.17;;
70477;SDS011;57956;53.362;-1.518;2022-09-03T06:52:44;11.27;;;4.53;;
70477;SDS011;57956;53.362;-1.518;2022-09-03T06:55:09;10.97;;;3.67;;
70477;SDS011;57956;53.362;-1.518;2022-09-03T06:57:34;12.00;;;4.80;;
70477;SDS011;57956;53.362;-1.518;2022-09-03T06:59:59;8.37;;;3.70;;
70477;SDS011;57956;53.362;-1.518;2022-09-03T07:02:28;12.73;;;5.38;;
70477;SDS011;57956;53.362;-1.518;2022-09-03T07:04:53;11.13;;;4.43;;
70477;SDS011;57956;53.362;-1.518;2022-09-03T07:07:18;9.87;;;4.93;;
70477;SDS011;57956;53.362;-1.518;2022-09-03T07:09:44;11.57;;;3.63;;
70477;SDS011;57956;53.362;-1.518;2022-09-03T07:12:09;8.93;;;3.27;;
70477;SDS011;57956;53.362;-1.518;2022-09-03T07:14:36;8.55;;;3.15;;
70477;SDS011;57956;53.362;-1.518;2022-09-03T07:17:01;9.67;;;3.80;;
70477;SDS011;57956;53.362;-1.518;2022-09-03T07:19:26;9.17;;;3.83;;
70477;SDS011;57956;53.362;-1.518;2022-09-03T07:21:51;11.27;;;4.28;;
70477;SDS011;57956;53.362;-1.518;2022-09-03T07:24:17;10.80;;;4.03;;
70477;SDS011;57956;53.362;-1.518;2022-09-03T07:26:43;9.53;;;3.83;;
70477;SDS011;57956;53.362;-1.518;2022-09-03T07:29:10;11.60;;;3.87;;
70477;SDS011;57956;53.362;-1.518;2022-09-03T07:31:37;11.40;;;4.43;;
70477;SDS011;57956;53.362;-1.518;2022-09-03T07:34:04;9.35;;;4.13;;
70477;SDS011;57956;53.362;-1.518;2022-09-03T07:36:30;9.80;;;3.80;;
70477;SDS011;57956;53.362;-1.518;2022-09-03T07:38:56;10.88;;;4.45;;
70477;SDS011;57956;53.362;-1.518;2022-09-03T07:41:23;13.33;;;5.03;;
70477;SDS011;57956;53.362;-1.518;2022-09-03T07:43:49;9.80;;;4.13;;
70477;SDS011;57956;53.362;-1.518;2022-09-03T07:46:15;14.93;;;5.37;;
70477;SDS011;57956;53.362;-1.518;2022-09-03T07:48:45;8.65;;;3.80;;
70477;SDS011;57956;53.362;-1.518;2022-09-03T07:51:11;11.68;;;4.95;;
70477;SDS011;57956;53.362;-1.518;2022-09-03T07:53:36;11.63;;;4.33;;
70477;SDS011;57956;53.362;-1.518;2022-09-03T07:56:02;9.57;;;5.03;;
70477;SDS011;57956;53.362;-1.518;2022-09-03T07:58:28;10.00;;;4.70;;
70477;SDS011;57956;53.362;-1.518;2022-09-03T08:00:54;10.80;;;3.97;;
70477;SDS011;57956;53.362;-1.518;2022-09-03T08:03:21;10.30;;;4.82;;
70477;SDS011;57956;53.362;-1.518;2022-09-03T08:05:46;13.27;;;4.47;;
70477;SDS011;57956;53.362;-1.518;2022-09-03T08:08:12;12.53;;;5.60;;
70477;SDS011;57956;53.362;-1.518;2022-09-03T08:10:38;13.07;;;5.43;;
70477;SDS011;57956;53.362;-1.518;2022-09-03T08:13:04;9.53;;;4.57;;
70477;SDS011;57956;53.362;-1.518;2022-09-03T08:15:30;10.93;;;4.03;;
70477;SDS011;57956;53.362;-1.518;2022-09-03T08:17:55;9.20;;;4.55;;
70477;SDS011;57956;53.362;-1.518;2022-09-03T08:20:20;9.47;;;3.33;;
70477;SDS011;57956;53.362;-1.518;2022-09-03T08:22:46;9.87;;;4.60;;
70477;SDS011;57956;53.362;-1.518;2022-09-03T08:25:12;10.20;;;4.50;;
70477;SDS011;57956;53.362;-1.518;2022-09-03T08:27:37;9.80;;;5.17;;
70477;SDS011;57956;53.362;-1.518;2022-09-03T08:30:03;10.50;;;4.07;;
70477;SDS011;57956;53.362;-1.518;2022-09-03T08:32:28;12.03;;;4.23;;
70477;SDS011;57956;53.362;-1.518;2022-09-03T08:34:54;12.20;;;4.60;;
70477;SDS011;57956;53.362;-1.518;2022-09-03T08:37:19;9.47;;;4.20;;
70477;SDS011;57956;53.362;-1.518;2022-09-03T08:39:44;15.97;;;4.93;;
70477;SDS011;57956;53.362;-1.518;2022-09-03T08:42:13;12.87;;;5.07;;
70477;SDS011;57956;53.362;-1.518;2022-09-03T08:44:51;13.65;;;4.93;;
70477;SDS011;57956;53.362;-1.518;2022-09-03T08:50:09;11.15;;;4.90;;
70477;SDS011;57956;53.362;-1.518;2022-09-03T08:58:36;13.05;;;5.15;;
70477;SDS011;57956;53.362;-1.518;2022-09-03T09:05:40;15.50;;;5.53;;
70477;SDS011;57956;53.362;-1.518;2022-09-03T09:08:19;15.80;;;5.57;;
70477;SDS011;57956;53.362;-1.518;2022-09-03T09:10:48;10.40;;;5.32;;
70477;SDS011;57956;53.362;-1.518;2022-09-03T09:21:21;11.20;;;4.50;;
70477;SDS011;57956;53.362;-1.518;2022-09-03T09:23:48;14.43;;;5.20;;
70477;SDS011;57956;53.362;-1.518;2022-09-03T09:26:15;12.60;;;4.37;;
70477;SDS011;57956;53.362;-1.518;2022-09-03T09:28:41;10.25;;;4.53;;
70477;SDS011;57956;53.362;-1.518;2022-09-03T09:31:09;12.93;;;4.57;;
70477;SDS011;57956;53.362;-1.518;2022-09-03T09:33:36;12.38;;;5.30;;
70477;SDS011;57956;53.362;-1.518;2022-09-03T09:36:02;11.67;;;5.40;;
70477;SDS011;57956;53.362;-1.518;2022-09-03T09:38:30;13.45;;;4.97;;
70477;SDS011;57956;53.362;-1.518;2022-09-03T09:41:06;12.35;;;5.28;;
70477;SDS011;57956;53.362;-1.518;2022-09-03T09:43:32;16.92;;;6.72;;
70477;SDS011;57956;53.362;-1.518;2022-09-03T09:46:04;13.40;;;5.23;;
70477;SDS011;57956;53.362;-1.518;2022-09-03T09:48:30;16.05;;;6.55;;
70477;SDS011;57956;53.362;-1.518;2022-09-03T09:53:29;19.00;;;6.90;;
70477;SDS011;57956;53.362;-1.518;2022-09-03T09:55:59;13.63;;;4.95;;
70477;SDS011;57956;53.362;-1.518;2022-09-03T09:58:28;10.70;;;4.93;;
70477;SDS011;57956;53.362;-1.518;2022-09-03T10:01:02;15.20;;;5.38;;
70477;SDS011;57956;53.362;-1.518;2022-09-03T10:03:32;19.20;;;5.68;;
70477;SDS011;57956;53.362;-1.518;2022-09-03T10:06:04;12.77;;;5.63;;
70477;SDS011;57956;53.362;-1.518;2022-09-03T10:08:51;14.40;;;5.83;;
70477;SDS011;57956;53.362;-1.518;2022-09-03T10:11:17;11.65;;;5.72;;
70477;SDS011;57956;53.362;-1.518;2022-09-03T10:13:44;11.85;;;5.57;;
70477;SDS011;57956;53.362;-1.518;2022-09-03T10:16:19;12.55;;;5.82;;
70477;SDS011;57956;53.362;-1.518;2022-09-03T10:24:21;12.57;;;5.28;;
70477;SDS011;57956;53.362;-1.518;2022-09-03T10:26:49;13.13;;;4.82;;
70477;SDS011;57956;53.362;-1.518;2022-09-03T10:29:16;10.57;;;3.80;;
70477;SDS011;57956;53.362;-1.518;2022-09-03T10:34:20;8.07;;;4.33;;
70477;SDS011;57956;53.362;-1.518;2022-09-03T10:39:31;10.95;;;4.07;;
70477;SDS011;57956;53.362;-1.518;2022-09-03T10:42:16;12.70;;;4.80;;
70477;SDS011;57956;53.362;-1.518;2022-09-03T10:50:14;10.75;;;4.32;;
70477;SDS011;57956;53.362;-1.518;2022-09-03T10:52:48;13.70;;;6.15;;
70477;SDS011;57956;53.362;-1.518;2022-09-03T10:55:18;10.68;;;4.45;;
70477;SDS011;57956;53.362;-1.518;2022-09-03T10:57:54;7.73;;;4.53;;
70477;SDS011;57956;53.362;-1.518;2022-09-03T11:00:23;9.45;;;3.83;;
70477;SDS011;57956;53.362;-1.518;2022-09-03T11:05:17;8.23;;;3.73;;
70477;SDS011;57956;53.362;-1.518;2022-09-03T11:12:37;7.33;;;3.03;;
70477;SDS011;57956;53.362;-1.518;2022-09-03T11:15:04;8.88;;;4.22;;
70477;SDS011;57956;53.362;-1.518;2022-09-03T11:17:32;6.75;;;3.00;;
70477;SDS011;57956;53.362;-1.518;2022-09-03T11:22:26;8.87;;;3.33;;
70477;SDS011;57956;53.362;-1.518;2022-09-03T11:24:54;7.05;;;3.03;;
70477;SDS011;57956;53.362;-1.518;2022-09-03T11:30:06;6.07;;;2.37;;
70477;SDS011;57956;53.362;-1.518;2022-09-03T11:35:11;6.90;;;3.03;;
70477;SDS011;57956;53.362;-1.518;2022-09-03T11:37:44;7.75;;;2.78;;
70477;SDS011;57956;53.362;-1.518;2022-09-03T11:40:15;6.68;;;3.00;;
70477;SDS011;57956;53.362;-1.518;2022-09-03T11:42:42;5.15;;;2.30;;
70477;SDS011;57956;53.362;-1.518;2022-09-03T11:47:43;5.13;;;2.07;;
70477;SDS011;57956;53.362;-1.518;2022-09-03T11:52:34;6.57;;;2.63;;
70477;SDS011;57956;53.362;-1.518;2022-09-03T11:55:04;5.32;;;2.20;;
70477;SDS011;57956;53.362;-1.518;2022-09-03T11:57:30;6.20;;;2.53;;
70477;SDS011;57956;53.362;-1.518;2022-09-03T12:00:09;6.83;;;2.63;;
70477;SDS011;57956;53.362;-1.518;2022-09-03T12:02:36;4.07;;;1.75;;
70477;SDS011;57956;53.362;-1.518;2022-09-03T12:05:10;5.65;;;1.63;;
70477;SDS011;57956;53.362;-1.518;2022-09-03T12:15:34;7.10;;;2.80;;
70477;SDS011;57956;53.362;-1.518;2022-09-03T12:20:43;4.15;;;2.00;;
70477;SDS011;57956;53.362;-1.518;2022-09-03T12:23:10;5.50;;;2.20;;
70477;SDS011;57956;53.362;-1.518;2022-09-03T12:25:41;5.97;;;1.83;;
70477;SDS011;57956;53.362;-1.518;2022-09-03T12:28:10;5.20;;;1.87;;
70477;SDS011;57956;53.362;-1.518;2022-09-03T12:30:36;4.25;;;1.90;;
70477;SDS011;57956;53.362;-1.518;2022-09-03T12:33:05;5.27;;;2.07;;
70477;SDS011;57956;53.362;-1.518;2022-09-03T12:35:31;5.50;;;2.20;;
70477;SDS011;57956;53.362;-1.518;2022-09-03T12:37:56;4.63;;;1.77;;
70477;SDS011;57956;53.362;-1.518;2022-09-03T12:40:25;4.97;;;1.87;;
70477;SDS011;57956;53.362;-1.518;2022-09-03T12:42:51;5.38;;;2.10;;
70477;SDS011;57956;53.362;-1.518;2022-09-03T12:45:23;4.83;;;1.90;;
70477;SDS011;57956;53.362;-1.518;2022-09-03T12:47:49;5.20;;;2.35;;
70477;SDS011;57956;53.362;-1.518;2022-09-03T12:50:21;5.22;;;1.58;;
70477;SDS011;57956;53.362;-1.518;2022-09-03T12:52:49;5.37;;;1.77;;
70477;SDS011;57956;53.362;-1.518;2022-09-03T12:57:51;6.67;;;2.00;;
70477;SDS011;57956;53.362;-1.518;2022-09-03T13:00:17;6.47;;;2.03;;
70477;SDS011;57956;53.362;-1.518;2022-09-03T13:02:49;4.60;;;1.58;;
70477;SDS011;57956;53.362;-1.518;2022-09-03T13:05:40;3.88;;;1.63;;
70477;SDS011;57956;53.362;-1.518;2022-09-03T13:08:01;4.05;;;1.38;;
70477;SDS011;57956;53.362;-1.518;2022-09-03T13:10:33;8.00;;;1.38;;
70477;SDS011;57956;53.362;-1.518;2022-09-03T13:13:01;5.33;;;1.83;;
70477;SDS011;57956;53.362;-1.518;2022-09-03T13:15:28;5.75;;;1.20;;
70477;SDS011;57956;53.362;-1.518;2022-09-03T13:23:00;3.20;;;1.25;;
70477;SDS011;57956;53.362;-1.518;2022-09-03T13:30:28;4.00;;;1.25;;
70477;SDS011;57956;53.362;-1.518;2022-09-03T13:32:56;3.63;;;1.17;;
70477;SDS011;57956;53.362;-1.518;2022-09-03T13:40:34;3.37;;;1.13;;
70477;SDS011;57956;53.362;-1.518;2022-09-03T13:43:01;3.77;;;1.30;;
70477;SDS011;57956;53.362;-1.518;2022-09-03T13:45:30;3.03;;;1.45;;
70477;SDS011;57956;53.362;-1.518;2022-09-03T13:55:56;3.27;;;1.00;;
70477;SDS011;57956;53.362;-1.518;2022-09-03T13:58:30;3.60;;;0.80;;
70477;SDS011;57956;53.362;-1.518;2022-09-03T14:08:31;3.13;;;0.75;;
70477;SDS011;57956;53.362;-1.518;2022-09-03T14:11:02;3.17;;;0.85;;
70477;SDS011;57956;53.362;-1.518;2022-09-03T14:13:38;3.00;;;1.10;;
70477;SDS011;57956;53.362;-1.518;2022-09-03T14:16:24;2.40;;;0.60;;
70477;SDS011;57956;53.362;-1.518;2022-09-03T14:26:26;2.63;;;0.77;;
70477;SDS011;57956;53.362;-1.518;2022-09-03T14:29:14;2.20;;;0.50;;
70477;SDS011;57956;53.362;-1.518;2022-09-03T14:34:21;2.60;;;0.67;;
70477;SDS011;57956;53.362;-1.518;2022-09-03T14:45:07;2.97;;;0.88;;
70477;SDS011;57956;53.362;-1.518;2022-09-03T14:55:24;3.85;;;0.60;;
70477;SDS011;57956;53.362;-1.518;2022-09-03T14:58:06;2.22;;;0.50;;
70477;SDS011;57956;53.362;-1.518;2022-09-03T15:08:37;2.38;;;0.50;;
70477;SDS011;57956;53.362;-1.518;2022-09-03T15:11:12;3.42;;;0.80;;
70477;SDS011;57956;53.362;-1.518;2022-09-03T15:13:45;2.95;;;0.80;;
70477;SDS011;57956;53.362;-1.518;2022-09-03T15:19:09;3.70;;;0.70;;
70477;SDS011;57956;53.362;-1.518;2022-09-03T15:21:44;2.73;;;0.70;;
70477;SDS011;57956;53.362;-1.518;2022-09-03T15:29:51;3.10;;;0.80;;
70477;SDS011;57956;53.362;-1.518;2022-09-03T15:35:03;1.93;;;0.53;;
70477;SDS011;57956;53.362;-1.518;2022-09-03T15:40:03;3.17;;;0.60;;
70477;SDS011;57956;53.362;-1.518;2022-09-03T15:42:29;2.73;;;0.70;;
70477;SDS011;57956;53.362;-1.518;2022-09-03T15:44:59;2.28;;;0.70;;
70477;SDS011;57956;53.362;-1.518;2022-09-03T15:47:37;2.70;;;0.80;;
70477;SDS011;57956;53.362;-1.518;2022-09-03T16:00:57;3.03;;;0.90;;
70477;SDS011;57956;53.362;-1.518;2022-09-03T16:03:36;2.47;;;0.83;;
70477;SDS011;57956;53.362;-1.518;2022-09-03T16:16:44;7.45;;;1.05;;
70477;SDS011;57956;53.362;-1.518;2022-09-03T16:21:54;3.40;;;0.70;;
70477;SDS011;57956;53.362;-1.518;2022-09-03T16:24:40;3.17;;;0.88;;
70477;SDS011;57956;53.362;-1.518;2022-09-03T16:27:14;2.97;;;0.73;;
70477;SDS011;57956;53.362;-1.518;2022-09-03T16:29:40;2.83;;;1.17;;
70477;SDS011;57956;53.362;-1.518;2022-09-03T16:32:16;3.50;;;1.05;;
70477;SDS011;57956;53.362;-1.518;2022-09-03T16:42:43;3.00;;;1.13;;
70477;SDS011;57956;53.362;-1.518;2022-09-03T16:45:17;3.45;;;1.08;;
70477;SDS011;57956;53.362;-1.518;2022-09-03T16:48:01;3.70;;;0.90;;
70477;SDS011;57956;53.362;-1.518;2022-09-03T16:50:41;3.45;;;0.73;;
70477;SDS011;57956;53.362;-1.518;2022-09-03T16:53:23;3.20;;;1.15;;
70477;SDS011;57956;53.362;-1.518;2022-09-03T17:01:52;4.72;;;1.40;;
70477;SDS011;57956;53.362;-1.518;2022-09-03T17:06:40;4.47;;;1.42;;
70477;SDS011;57956;53.362;-1.518;2022-09-03T17:14:13;3.20;;;1.13;;
70477;SDS011;57956;53.362;-1.518;2022-09-03T17:16:45;3.83;;;1.20;;
70477;SDS011;57956;53.362;-1.518;2022-09-03T17:21:49;4.23;;;1.17;;
70477;SDS011;57956;53.362;-1.518;2022-09-03T17:24:22;3.65;;;1.20;;
70477;SDS011;57956;53.362;-1.518;2022-09-03T17:50:27;4.05;;;0.85;;
70477;SDS011;57956;53.362;-1.518;2022-09-03T17:55:40;4.57;;;1.23;;
70477;SDS011;57956;53.362;-1.518;2022-09-03T18:00:35;3.20;;;0.80;;
70477;SDS011;57956;53.362;-1.518;2022-09-03T18:03:07;4.18;;;1.20;;
70477;SDS011;57956;53.362;-1.518;2022-09-03T18:05:46;3.60;;;1.15;;
70477;SDS011;57956;53.362;-1.518;2022-09-03T18:08:19;3.42;;;1.30;;
70477;SDS011;57956;53.362;-1.518;2022-09-03T18:11:06;2.80;;;0.63;;
70477;SDS011;57956;53.362;-1.518;2022-09-03T18:18:52;2.70;;;0.90;;
70477;SDS011;57956;53.362;-1.518;2022-09-03T18:21:23;3.58;;;1.05;;
70477;SDS011;57956;53.362;-1.518;2022-09-03T18:27:11;2.60;;;0.77;;
70477;SDS011;57956;53.362;-1.518;2022-09-03T18:30:01;2.70;;;1.00;;
70477;SDS011;57956;53.362;-1.518;2022-09-03T18:32:46;2.58;;;0.80;;
70477;SDS011;57956;53.362;-1.518;2022-09-03T18:35:30;3.42;;;0.90;;
70477;SDS011;57956;53.362;-1.518;2022-09-03T18:38:16;3.90;;;0.70;;
70477;SDS011;57956;53.362;-1.518;2022-09-03T19:01:37;2.90;;;0.77;;
70477;SDS011;57956;53.362;-1.518;2022-09-03T19:04:24;3.50;;;1.03;;
70477;SDS011;57956;53.362;-1.518;2022-09-03T19:10:17;2.00;;;0.52;;
70477;SDS011;57956;53.362;-1.518;2022-09-03T19:21:51;13.03;;;4.10;;
70477;SDS011;57956;53.362;-1.518;2022-09-03T19:24:37;10.63;;;3.58;;
70477;SDS011;57956;53.362;-1.518;2022-09-03T19:30:06;28.00;;;8.57;;
70477;SDS011;57956;53.362;-1.518;2022-09-03T19:39:00;19.00;;;6.97;;
70477;SDS011;57956;53.362;-1.518;2022-09-03T19:41:55;9.65;;;2.80;;
70477;SDS011;57956;53.362;-1.518;2022-09-03T19:44:54;11.35;;;4.75;;
70477;SDS011;57956;53.362;-1.518;2022-09-03T19:47:58;47.45;;;15.85;;
70477;SDS011;57956;53.362;-1.518;2022-09-03T19:50:48;33.60;;;11.85;;
70477;SDS011;57956;53.362;-1.518;2022-09-03T19:53:36;18.43;;;6.10;;
70477;SDS011;57956;53.362;-1.518;2022-09-03T19:56:27;17.30;;;6.13;;
70477;SDS011;57956;53.362;-1.518;2022-09-03T19:59:12;12.32;;;4.57;;
70477;SDS011;57956;53.362;-1.518;2022-09-03T20:01:58;15.73;;;4.30;;
70477;SDS011;57956;53.362;-1.518;2022-09-03T20:04:44;4.45;;;1.90;;
70477;SDS011;57956;53.362;-1.518;2022-09-03T20:07:28;5.18;;;1.25;;
70477;SDS011;57956;53.362;-1.518;2022-09-03T20:10:13;4.77;;;1.60;;
70477;SDS011;57956;53.362;-1.518;2022-09-03T20:15:14;3.85;;;1.35;;
70477;SDS011;57956;53.362;-1.518;2022-09-03T20:23:02;5.93;;;1.90;;
70477;SDS011;57956;53.362;-1.518;2022-09-03T20:30:54;6.18;;;1.63;;
70477;SDS011;57956;53.362;-1.518;2022-09-03T20:40:45;4.87;;;2.27;;
70477;SDS011;57956;53.362;-1.518;2022-09-03T20:55:53;3.72;;;0.80;;
70477;SDS011;57956;53.362;-1.518;2022-09-03T20:58:25;3.35;;;1.05;;
70477;SDS011;57956;53.362;-1.518;2022-09-03T21:23:45;2.47;;;0.63;;